sensor_id;sensor_type;location;lat;lon;timestamp;pressure;altitude;pressure_sealevel;temperature;humidity
23321;BME280;33376;51.306;4.752;2023-06-19T00:01:04;101226.69;;;18.81;100.00
23321;BME280;33376;51.306;4.752;2023-06-19T00:03:30;101240.47;;;18.76;100.00
23321;BME280;33376;51.306;4.752;2023-06-19T00:05:55;101243.31;;;18.64;100.00
23321;BME280;33376;51.306;4.752;2023-06-19T00:08:20;101248.44;;;18.67;100.00
23321;BME280;33376;51.306;4.752;2023-06-19T00:10:45;101263.38;;;18.49;100.00
23321;BME280;33376;51.306;4.752;2023-06-19T00:13:11;101265.69;;;18.53;100.00
23321;BME280;33376;51.306;4.752;2023-06-19T00:15:36;101262.34;;;18.72;100.00
23321;BME280;33376;51.306;4.752;2023-06-19T00:18:01;101259.28;;;18.87;100.00
23321;BME280;33376;51.306;4.752;2023-06-19T00:20:27;101250.84;;;18.92;100.00
23321;BME280;33376;51.306;4.752;2023-06-19T00:22:52;101259.16;;;18.89;100.00
23321;BME280;33376;51.306;4.752;2023-06-19T00:25:18;101246.53;;;18.89;100.00
23321;BME280;33376;51.306;4.752;2023-06-19T00:27:44;101258.94;;;18.81;100.00
23321;BME280;33376;51.306;4.752;2023-06-19T00:30:09;101267.34;;;18.87;100.00
23321;BME280;33376;51.306;4.752;2023-06-19T00:32:34;101276.25;;;18.77;100.00
23321;BME280;33376;51.306;4.752;2023-06-19T00:35:11;101283.97;;;18.70;100.00
23321;BME280;33376;51.306;4.752;2023-06-19T00:37:36;101287.16;;;18.64;100.00
23321;BME280;33376;51.306;4.752;2023-06-19T00:40:01;101291.66;;;18.64;100.00
23321;BME280;33376;51.306;4.752;2023-06-19T00:42:26;101298.16;;;18.61;100.00
23321;BME280;33376;51.306;4.752;2023-06-19T00:44:52;101305.31;;;18.72;100.00
23321;BME280;33376;51.306;4.752;2023-06-19T00:47:17;101303.97;;;18.88;100.00
23321;BME280;33376;51.306;4.752;2023-06-19T00:49:42;101308.72;;;18.96;100.00
23321;BME280;33376;51.306;4.752;2023-06-19T00:52:08;101309.19;;;19.01;100.00
23321;BME280;33376;51.306;4.752;2023-06-19T00:54:33;101307.72;;;19.08;100.00
23321;BME280;33376;51.306;4.752;2023-06-19T00:56:59;101295.19;;;19.18;100.00
23321;BME280;33376;51.306;4.752;2023-06-19T00:59:25;101292.97;;;19.23;100.00
23321;BME280;33376;51.306;4.752;2023-06-19T01:01:50;101284.28;;;19.31;100.00
23321;BME280;33376;51.306;4.752;2023-06-19T01:04:17;101288.34;;;19.25;100.00
23321;BME280;33376;51.306;4.752;2023-06-19T01:06:49;101287.97;;;19.30;100.00
23321;BME280;33376;51.306;4.752;2023-06-19T01:09:16;101297.00;;;19.40;100.00
23321;BME280;33376;51.306;4.752;2023-06-19T01:11:47;101287.81;;;19.42;100.00
23321;BME280;33376;51.306;4.752;2023-06-19T01:14:21;101296.00;;;19.41;100.00
23321;BME280;33376;51.306;4.752;2023-06-19T01:16:50;101296.13;;;19.39;100.00
23321;BME280;33376;51.306;4.752;2023-06-19T01:19:18;101297.47;;;19.45;100.00
23321;BME280;33376;51.306;4.752;2023-06-19T01:21:44;101306.16;;;19.37;100.00
23321;BME280;33376;51.306;4.752;2023-06-19T01:24:10;101288.28;;;19.47;100.00
23321;BME280;33376;51.306;4.752;2023-06-19T01:26:35;101285.06;;;19.53;100.00
23321;BME280;33376;51.306;4.752;2023-06-19T01:29:01;101297.00;;;19.40;100.00
23321;BME280;33376;51.306;4.752;2023-06-19T01:31:30;101293.19;;;19.42;100.00
23321;BME280;33376;51.306;4.752;2023-06-19T01:33:56;101295.03;;;19.42;100.00
23321;BME280;33376;51.306;4.752;2023-06-19T01:36:22;101298.44;;;19.44;100.00
23321;BME280;33376;51.306;4.752;2023-06-19T01:38:48;101301.00;;;19.45;100.00
23321;BME280;33376;51.306;4.752;2023-06-19T01:41:15;101305.66;;;19.43;100.00
23321;BME280;33376;51.306;4.752;2023-06-19T01:43:40;101303.31;;;19.50;100.00
23321;BME280;33376;51.306;4.752;2023-06-19T01:46:07;101295.03;;;19.42;100.00
23321;BME280;33376;51.306;4.752;2023-06-19T01:48:32;101312.66;;;19.24;100.00
23321;BME280;33376;51.306;4.752;2023-06-19T01:50:59;101321.81;;;19.21;100.00
23321;BME280;33376;51.306;4.752;2023-06-19T01:53:24;101324.28;;;19.13;100.00
23321;BME280;33376;51.306;4.752;2023-06-19T01:55:50;101330.94;;;18.98;100.00
23321;BME280;33376;51.306;4.752;2023-06-19T01:58:15;101343.03;;;18.92;100.00
23321;BME280;33376;51.306;4.752;2023-06-19T02:00:40;101363.34;;;18.85;100.00
23321;BME280;33376;51.306;4.752;2023-06-19T02:03:05;101369.22;;;18.79;100.00
23321;BME280;33376;51.306;4.752;2023-06-19T02:05:31;101380.66;;;18.81;100.00
23321;BME280;33376;51.306;4.752;2023-06-19T02:07:56;101387.28;;;18.88;100.00
23321;BME280;33376;51.306;4.752;2023-06-19T02:10:21;101383.63;;;18.78;100.00
23321;BME280;33376;51.306;4.752;2023-06-19T02:12:46;101386.16;;;18.80;100.00
23321;BME280;33376;51.306;4.752;2023-06-19T02:15:11;101383.72;;;18.88;100.00
23321;BME280;33376;51.306;4.752;2023-06-19T02:17:37;101381.03;;;18.88;100.00
23321;BME280;33376;51.306;4.752;2023-06-19T02:20:02;101381.53;;;18.93;100.00
23321;BME280;33376;51.306;4.752;2023-06-19T02:22:32;101388.38;;;18.97;100.00
23321;BME280;33376;51.306;4.752;2023-06-19T02:24:57;101388.00;;;19.02;100.00
23321;BME280;33376;51.306;4.752;2023-06-19T02:27:23;101386.63;;;19.07;100.00
23321;BME280;33376;51.306;4.752;2023-06-19T02:29:48;101372.34;;;19.07;100.00
23321;BME280;33376;51.306;4.752;2023-06-19T02:32:14;101380.88;;;19.12;100.00
23321;BME280;33376;51.306;4.752;2023-06-19T02:34:39;101377.47;;;19.10;100.00
23321;BME280;33376;51.306;4.752;2023-06-19T02:37:04;101380.75;;;19.13;100.00
23321;BME280;33376;51.306;4.752;2023-06-19T02:39:30;101383.34;;;19.15;100.00
23321;BME280;33376;51.306;4.752;2023-06-19T02:41:55;101385.91;;;19.16;100.00
23321;BME280;33376;51.306;4.752;2023-06-19T02:44:20;101378.91;;;19.14;100.00
23321;BME280;33376;51.306;4.752;2023-06-19T02:46:45;101386.25;;;19.23;100.00
23321;BME280;33376;51.306;4.752;2023-06-19T02:49:11;101389.16;;;19.20;100.00
23321;BME280;33376;51.306;4.752;2023-06-19T02:51:36;101388.94;;;19.23;100.00
23321;BME280;33376;51.306;4.752;2023-06-19T02:54:01;101395.28;;;19.22;100.00
23321;BME280;33376;51.306;4.752;2023-06-19T02:56:26;101395.03;;;19.25;100.00
23321;BME280;33376;51.306;4.752;2023-06-19T02:58:53;101396.63;;;19.27;100.00
23321;BME280;33376;51.306;4.752;2023-06-19T03:01:18;101390.38;;;19.27;100.00
23321;BME280;33376;51.306;4.752;2023-06-19T03:03:44;101388.56;;;19.27;100.00
23321;BME280;33376;51.306;4.752;2023-06-19T03:06:11;101391.38;;;19.26;100.00
23321;BME280;33376;51.306;4.752;2023-06-19T03:08:38;101398.59;;;19.25;100.00
23321;BME280;33376;51.306;4.752;2023-06-19T03:11:03;101402.13;;;19.26;100.00
23321;BME280;33376;51.306;4.752;2023-06-19T03:13:35;101400.53;;;19.23;100.00
23321;BME280;33376;51.306;4.752;2023-06-19T03:16:00;101407.66;;;19.24;100.00
23321;BME280;33376;51.306;4.752;2023-06-19T03:18:26;101417.19;;;19.17;100.00
23321;BME280;33376;51.306;4.752;2023-06-19T03:20:51;101405.66;;;19.26;100.00
23321;BME280;33376;51.306;4.752;2023-06-19T03:23:16;101399.22;;;19.29;100.00
23321;BME280;33376;51.306;4.752;2023-06-19T03:25:41;101408.34;;;19.26;100.00
23321;BME280;33376;51.306;4.752;2023-06-19T03:28:07;101409.97;;;19.29;100.00
23321;BME280;33376;51.306;4.752;2023-06-19T03:30:33;101406.03;;;19.33;100.00
23321;BME280;33376;51.306;4.752;2023-06-19T03:32:58;101400.78;;;19.31;100.00
23321;BME280;33376;51.306;4.752;2023-06-19T03:35:24;101410.59;;;19.32;100.00
23321;BME280;33376;51.306;4.752;2023-06-19T03:37:52;101419.88;;;19.28;100.00
23321;BME280;33376;51.306;4.752;2023-06-19T03:40:30;101419.75;;;19.30;100.00
23321;BME280;33376;51.306;4.752;2023-06-19T03:42:55;101423.53;;;19.27;100.00
23321;BME280;33376;51.306;4.752;2023-06-19T03:45:24;101433.19;;;19.30;100.00
23321;BME280;33376;51.306;4.752;2023-06-19T03:47:53;101435.25;;;19.37;100.00
23321;BME280;33376;51.306;4.752;2023-06-19T03:50:19;101428.78;;;19.40;100.00
23321;BME280;33376;51.306;4.752;2023-06-19T03:52:47;101437.72;;;19.40;100.00
23321;BME280;33376;51.306;4.752;2023-06-19T03:55:15;101431.25;;;19.32;100.00
23321;BME280;33376;51.306;4.752;2023-06-19T03:57:44;101435.25;;;19.37;100.00
23321;BME280;33376;51.306;4.752;2023-06-19T04:00:13;101440.63;;;19.37;100.00
23321;BME280;33376;51.306;4.752;2023-06-19T04:02:40;101438.69;;;19.39;100.00
23321;BME280;33376;51.306;4.752;2023-06-19T04:05:12;101451.63;;;19.34;100.00
23321;BME280;33376;51.306;4.752;2023-06-19T04:07:48;101454.31;;;19.34;100.00
23321;BME280;33376;51.306;4.752;2023-06-19T04:10:13;101454.94;;;19.38;100.00
23321;BME280;33376;51.306;4.752;2023-06-19T04:12:39;101456.03;;;19.46;100.00
23321;BME280;33376;51.306;4.752;2023-06-19T04:15:05;101460.69;;;19.33;100.00
23321;BME280;33376;51.306;4.752;2023-06-19T04:17:31;101464.84;;;19.37;100.00
23321;BME280;33376;51.306;4.752;2023-06-19T04:19:56;101461.41;;;19.24;100.00
23321;BME280;33376;51.306;4.752;2023-06-19T04:22:21;101472.53;;;19.20;100.00
23321;BME280;33376;51.306;4.752;2023-06-19T04:24:46;101482.56;;;19.18;100.00
23321;BME280;33376;51.306;4.752;2023-06-19T04:27:12;101477.53;;;19.13;100.00
23321;BME280;33376;51.306;4.752;2023-06-19T04:29:37;101481.72;;;19.06;100.00
23321;BME280;33376;51.306;4.752;2023-06-19T04:32:02;101487.81;;;19.08;100.00
23321;BME280;33376;51.306;4.752;2023-06-19T04:34:28;101483.28;;;19.09;100.00
23321;BME280;33376;51.306;4.752;2023-06-19T04:36:53;101465.56;;;19.17;100.00
23321;BME280;33376;51.306;4.752;2023-06-19T04:39:23;101477.78;;;19.21;100.00
23321;BME280;33376;51.306;4.752;2023-06-19T04:41:48;101461.41;;;19.24;100.00
23321;BME280;33376;51.306;4.752;2023-06-19T04:44:14;101464.59;;;19.29;100.00
23321;BME280;33376;51.306;4.752;2023-06-19T04:46:40;101455.31;;;19.33;100.00
23321;BME280;33376;51.306;4.752;2023-06-19T04:49:05;101430.22;;;19.44;100.00
23321;BME280;33376;51.306;4.752;2023-06-19T04:51:31;101436.47;;;19.44;100.00
23321;BME280;33376;51.306;4.752;2023-06-19T04:53:57;101428.28;;;19.46;100.00
23321;BME280;33376;51.306;4.752;2023-06-19T04:56:23;101426.81;;;19.53;100.00
23321;BME280;33376;51.306;4.752;2023-06-19T04:58:48;101421.06;;;19.46;100.00
23321;BME280;33376;51.306;4.752;2023-06-19T05:01:15;101425.91;;;19.63;100.00
23321;BME280;33376;51.306;4.752;2023-06-19T05:03:40;101418.78;;;19.73;100.00
23321;BME280;33376;51.306;4.752;2023-06-19T05:06:06;101409.66;;;19.85;100.00
23321;BME280;33376;51.306;4.752;2023-06-19T05:08:31;101427.16;;;19.91;100.00
23321;BME280;33376;51.306;4.752;2023-06-19T05:10:56;101414.94;;;20.07;100.00
23321;BME280;33376;51.306;4.752;2023-06-19T05:13:23;101422.19;;;20.07;100.00
23321;BME280;33376;51.306;4.752;2023-06-19T05:15:48;101408.47;;;20.30;100.00
23321;BME280;33376;51.306;4.752;2023-06-19T05:18:17;101401.38;;;20.50;100.00
23321;BME280;33376;51.306;4.752;2023-06-19T05:20:42;101392.53;;;20.99;100.00
23321;BME280;33376;51.306;4.752;2023-06-19T05:23:07;101367.13;;;21.79;100.00
23321;BME280;33376;51.306;4.752;2023-06-19T05:25:32;101331.88;;;22.82;100.00
23321;BME280;33376;51.306;4.752;2023-06-19T05:27:58;101297.75;;;23.26;100.00
23321;BME280;33376;51.306;4.752;2023-06-19T05:30:23;101304.31;;;23.14;100.00
23321;BME280;33376;51.306;4.752;2023-06-19T05:32:48;101316.25;;;22.40;100.00
23321;BME280;33376;51.306;4.752;2023-06-19T05:35:13;101335.50;;;22.27;100.00
23321;BME280;33376;51.306;4.752;2023-06-19T05:37:39;101355.16;;;21.62;100.00
23321;BME280;33376;51.306;4.752;2023-06-19T05:40:05;101361.25;;;21.74;100.00
23321;BME280;33376;51.306;4.752;2023-06-19T05:42:30;101375.56;;;21.17;100.00
23321;BME280;33376;51.306;4.752;2023-06-19T05:44:56;101379.38;;;21.24;100.00
23321;BME280;33376;51.306;4.752;2023-06-19T05:47:21;101381.53;;;21.30;100.00
23321;BME280;33376;51.306;4.752;2023-06-19T05:49:49;101352.06;;;22.61;100.00
23321;BME280;33376;51.306;4.752;2023-06-19T05:52:14;101303.00;;;23.63;100.00
23321;BME280;33376;51.306;4.752;2023-06-19T05:54:39;101203.13;;;25.50;100.00
23321;BME280;33376;51.306;4.752;2023-06-19T05:57:05;101107.84;;;26.53;100.00
23321;BME280;33376;51.306;4.752;2023-06-19T05:59:30;101073.31;;;25.92;100.00
23321;BME280;33376;51.306;4.752;2023-06-19T06:01:55;101065.09;;;26.09;100.00
23321;BME280;33376;51.306;4.752;2023-06-19T06:04:21;101075.25;;;26.15;100.00
23321;BME280;33376;51.306;4.752;2023-06-19T06:06:47;101073.25;;;26.84;100.00
23321;BME280;33376;51.306;4.752;2023-06-19T06:09:12;100971.28;;;26.95;100.00
23321;BME280;33376;51.306;4.752;2023-06-19T06:11:38;101051.47;;;26.62;100.00
23321;BME280;33376;51.306;4.752;2023-06-19T06:14:03;100991.50;;;27.30;100.00
23321;BME280;33376;51.306;4.752;2023-06-19T06:16:28;100985.97;;;27.88;100.00
23321;BME280;33376;51.306;4.752;2023-06-19T06:18:53;100889.44;;;28.18;100.00
23321;BME280;33376;51.306;4.752;2023-06-19T06:21:19;100891.38;;;27.67;100.00
23321;BME280;33376;51.306;4.752;2023-06-19T06:23:44;100901.03;;;28.26;100.00
23321;BME280;33376;51.306;4.752;2023-06-19T06:26:09;100924.63;;;27.77;100.00
23321;BME280;33376;51.306;4.752;2023-06-19T06:28:35;100851.59;;;28.91;100.00
23321;BME280;33376;51.306;4.752;2023-06-19T06:31:00;100826.69;;;28.45;100.00
23321;BME280;33376;51.306;4.752;2023-06-19T06:33:25;100756.25;;;29.76;100.00
23321;BME280;33376;51.306;4.752;2023-06-19T06:35:53;100801.97;;;29.28;100.00
23321;BME280;33376;51.306;4.752;2023-06-19T06:38:19;100842.63;;;29.04;100.00
23321;BME280;33376;51.306;4.752;2023-06-19T06:40:44;100835.41;;;29.30;100.00
23321;BME280;33376;51.306;4.752;2023-06-19T06:43:09;100788.66;;;29.98;100.00
23321;BME280;33376;51.306;4.752;2023-06-19T06:45:34;100548.28;;;32.07;100.00
23321;BME280;33376;51.306;4.752;2023-06-19T06:48:02;100649.31;;;30.36;100.00
23321;BME280;33376;51.306;4.752;2023-06-19T06:50:28;100768.59;;;29.52;100.00
23321;BME280;33376;51.306;4.752;2023-06-19T06:52:53;100874.41;;;27.86;100.00
23321;BME280;33376;51.306;4.752;2023-06-19T06:55:18;100971.94;;;27.11;100.00
23321;BME280;33376;51.306;4.752;2023-06-19T06:57:43;101088.00;;;25.59;100.00
23321;BME280;33376;51.306;4.752;2023-06-19T07:00:09;101129.75;;;25.74;100.00
23321;BME280;33376;51.306;4.752;2023-06-19T07:02:37;101135.94;;;26.38;100.00
23321;BME280;33376;51.306;4.752;2023-06-19T07:05:02;101033.22;;;27.30;100.00
23321;BME280;33376;51.306;4.752;2023-06-19T07:07:27;101021.47;;;28.09;100.00
23321;BME280;33376;51.306;4.752;2023-06-19T07:09:53;100903.41;;;28.85;100.00
23321;BME280;33376;51.306;4.752;2023-06-19T07:12:18;100883.66;;;28.83;100.00
23321;BME280;33376;51.306;4.752;2023-06-19T07:14:43;100938.75;;;27.66;100.00
23321;BME280;33376;51.306;4.752;2023-06-19T07:17:08;101119.78;;;26.14;100.00
23321;BME280;33376;51.306;4.752;2023-06-19T07:19:34;101212.44;;;25.24;100.00
23321;BME280;33376;51.306;4.752;2023-06-19T07:21:59;101241.72;;;24.88;100.00
23321;BME280;33376;51.306;4.752;2023-06-19T07:24:24;101272.97;;;24.59;100.00
23321;BME280;33376;51.306;4.752;2023-06-19T07:26:50;101251.16;;;25.66;100.00
23321;BME280;33376;51.306;4.752;2023-06-19T07:29:15;101231.25;;;25.01;100.00
23321;BME280;33376;51.306;4.752;2023-06-19T07:31:40;101226.84;;;25.24;100.00
23321;BME280;33376;51.306;4.752;2023-06-19T07:34:07;101244.84;;;25.25;100.00
23321;BME280;33376;51.306;4.752;2023-06-19T07:36:33;101260.97;;;25.19;100.00
23321;BME280;33376;51.306;4.752;2023-06-19T07:38:58;101207.44;;;26.00;100.00
23321;BME280;33376;51.306;4.752;2023-06-19T07:41:23;101135.34;;;26.28;100.00
23321;BME280;33376;51.306;4.752;2023-06-19T07:43:48;101115.63;;;26.26;100.00
23321;BME280;33376;51.306;4.752;2023-06-19T07:46:14;101134.75;;;26.10;100.00
23321;BME280;33376;51.306;4.752;2023-06-19T07:48:40;101162.75;;;25.47;100.00
23321;BME280;33376;51.306;4.752;2023-06-19T07:51:05;101210.50;;;24.76;100.00
23321;BME280;33376;51.306;4.752;2023-06-19T07:53:31;101237.44;;;24.70;100.00
23321;BME280;33376;51.306;4.752;2023-06-19T07:55:56;101245.59;;;24.36;100.00
23321;BME280;33376;51.306;4.752;2023-06-19T07:58:21;101295.75;;;24.14;100.00
23321;BME280;33376;51.306;4.752;2023-06-19T08:00:47;101312.31;;;24.96;100.00
23321;BME280;33376;51.306;4.752;2023-06-19T08:03:12;101163.84;;;25.77;100.00
23321;BME280;33376;51.306;4.752;2023-06-19T08:05:37;101134.72;;;26.48;100.00
23321;BME280;33376;51.306;4.752;2023-06-19T08:08:03;101048.09;;;28.42;100.00
23321;BME280;33376;51.306;4.752;2023-06-19T08:10:28;100940.06;;;29.03;100.00
23321;BME280;33376;51.306;4.752;2023-06-19T08:12:53;100867.59;;;28.67;100.00
23321;BME280;33376;51.306;4.752;2023-06-19T08:15:19;100901.75;;;27.93;100.00
23321;BME280;33376;51.306;4.752;2023-06-19T08:17:44;100980.97;;;27.56;100.00
23321;BME280;33376;51.306;4.752;2023-06-19T08:20:09;100965.50;;;28.34;100.00
23321;BME280;33376;51.306;4.752;2023-06-19T08:22:35;100960.41;;;27.39;100.00
23321;BME280;33376;51.306;4.752;2023-06-19T08:25:00;101080.56;;;26.61;100.00
23321;BME280;33376;51.306;4.752;2023-06-19T08:27:26;101104.22;;;26.30;100.00
23321;BME280;33376;51.306;4.752;2023-06-19T08:29:51;101120.13;;;26.72;100.00
23321;BME280;33376;51.306;4.752;2023-06-19T08:32:16;101066.47;;;27.03;100.00
23321;BME280;33376;51.306;4.752;2023-06-19T08:34:42;101045.22;;;27.65;100.00
23321;BME280;33376;51.306;4.752;2023-06-19T08:37:07;100965.34;;;28.56;100.00
23321;BME280;33376;51.306;4.752;2023-06-19T08:39:33;100837.78;;;29.59;100.00
23321;BME280;33376;51.306;4.752;2023-06-19T08:41:58;100893.19;;;29.94;100.00
23321;BME280;33376;51.306;4.752;2023-06-19T08:44:23;100743.59;;;30.97;100.00
23321;BME280;33376;51.306;4.752;2023-06-19T08:46:49;100662.72;;;30.57;100.00
23321;BME280;33376;51.306;4.752;2023-06-19T08:49:14;100678.28;;;31.01;100.00
23321;BME280;33376;51.306;4.752;2023-06-19T08:51:40;100690.81;;;31.53;100.00
23321;BME280;33376;51.306;4.752;2023-06-19T08:54:06;100609.22;;;32.93;100.00
23321;BME280;33376;51.306;4.752;2023-06-19T08:56:32;100526.81;;;32.33;100.00
23321;BME280;33376;51.306;4.752;2023-06-19T08:59:15;100601.94;;;31.60;100.00
23321;BME280;33376;51.306;4.752;2023-06-19T09:01:51;100576.31;;;32.86;100.00
23321;BME280;33376;51.306;4.752;2023-06-19T09:04:17;100589.69;;;31.81;100.00
23321;BME280;33376;51.306;4.752;2023-06-19T09:07:01;100600.22;;;32.86;100.00
23321;BME280;33376;51.306;4.752;2023-06-19T09:09:27;100471.63;;;31.94;100.00
23321;BME280;33376;51.306;4.752;2023-06-19T09:14:31;100496.84;;;32.50;100.00
23321;BME280;33376;51.306;4.752;2023-06-19T09:16:56;100509.22;;;32.82;100.00
23321;BME280;33376;51.306;4.752;2023-06-19T09:19:21;100489.25;;;32.75;100.00
23321;BME280;33376;51.306;4.752;2023-06-19T09:21:47;100481.97;;;33.84;100.00
23321;BME280;33376;51.306;4.752;2023-06-19T09:24:12;100400.94;;;34.03;100.00
23321;BME280;33376;51.306;4.752;2023-06-19T09:26:37;100354.53;;;34.40;100.00
23321;BME280;33376;51.306;4.752;2023-06-19T09:29:14;100336.88;;;34.25;100.00
23321;BME280;33376;51.306;4.752;2023-06-19T09:31:44;100372.53;;;33.35;100.00
23321;BME280;33376;51.306;4.752;2023-06-19T09:34:09;100410.22;;;33.74;100.00
23321;BME280;33376;51.306;4.752;2023-06-19T09:36:35;100398.72;;;32.80;100.00
23321;BME280;33376;51.306;4.752;2023-06-19T09:39:01;100307.28;;;34.48;100.00
23321;BME280;33376;51.306;4.752;2023-06-19T09:41:27;100383.56;;;34.03;100.00
23321;BME280;33376;51.306;4.752;2023-06-19T09:43:54;100323.81;;;33.87;100.00
23321;BME280;33376;51.306;4.752;2023-06-19T09:46:22;100196.41;;;35.22;100.00
23321;BME280;33376;51.306;4.752;2023-06-19T09:48:51;100269.47;;;34.44;100.00
23321;BME280;33376;51.306;4.752;2023-06-19T09:51:20;100342.13;;;34.26;100.00
23321;BME280;33376;51.306;4.752;2023-06-19T09:53:49;100295.69;;;33.85;100.00
23321;BME280;33376;51.306;4.752;2023-06-19T09:56:15;100436.69;;;31.89;100.00
23321;BME280;33376;51.306;4.752;2023-06-19T09:58:41;100460.13;;;32.74;100.00
23321;BME280;33376;51.306;4.752;2023-06-19T10:01:08;100659.09;;;31.01;100.00
23321;BME280;33376;51.306;4.752;2023-06-19T10:03:34;100674.47;;;30.58;100.00
23321;BME280;33376;51.306;4.752;2023-06-19T10:06:00;100628.28;;;30.74;100.00
23321;BME280;33376;51.306;4.752;2023-06-19T10:08:47;100739.03;;;29.95;100.00
23321;BME280;33376;51.306;4.752;2023-06-19T10:11:11;100754.78;;;29.73;100.00
23321;BME280;33376;51.306;4.752;2023-06-19T10:13:38;100781.16;;;29.27;100.00
23321;BME280;33376;51.306;4.752;2023-06-19T10:16:04;100831.00;;;29.36;100.00
23321;BME280;33376;51.306;4.752;2023-06-19T10:18:31;100780.88;;;30.09;100.00
23321;BME280;33376;51.306;4.752;2023-06-19T10:20:56;100630.59;;;30.77;100.00
23321;BME280;33376;51.306;4.752;2023-06-19T10:23:24;100712.03;;;29.33;100.00
23321;BME280;33376;51.306;4.752;2023-06-19T10:25:57;100683.03;;;30.81;100.00
23321;BME280;33376;51.306;4.752;2023-06-19T10:28:24;100705.97;;;30.73;100.00
23321;BME280;33376;51.306;4.752;2023-06-19T10:31:02;100688.88;;;30.91;100.00
23321;BME280;33376;51.306;4.752;2023-06-19T10:33:29;100695.28;;;29.69;100.00
23321;BME280;33376;51.306;4.752;2023-06-19T10:35:55;100762.56;;;29.76;100.00
23321;BME280;33376;51.306;4.752;2023-06-19T10:38:20;100735.22;;;30.22;100.00
23321;BME280;33376;51.306;4.752;2023-06-19T10:40:46;100661.25;;;31.23;100.00
23321;BME280;33376;51.306;4.752;2023-06-19T10:43:12;100692.69;;;30.07;100.00
23321;BME280;33376;51.306;4.752;2023-06-19T10:45:37;100722.50;;;31.04;100.00
23321;BME280;33376;51.306;4.752;2023-06-19T10:48:03;100647.81;;;31.71;100.00
23321;BME280;33376;51.306;4.752;2023-06-19T10:50:29;100563.69;;;31.90;100.00
23321;BME280;33376;51.306;4.752;2023-06-19T10:52:54;100465.75;;;32.79;100.00
23321;BME280;33376;51.306;4.752;2023-06-19T10:55:22;100536.97;;;31.79;100.00
23321;BME280;33376;51.306;4.752;2023-06-19T10:57:48;100467.59;;;32.26;100.00
23321;BME280;33376;51.306;4.752;2023-06-19T11:00:27;100499.91;;;31.94;100.00
23321;BME280;33376;51.306;4.752;2023-06-19T11:02:53;100576.97;;;30.94;100.00
23321;BME280;33376;51.306;4.752;2023-06-19T11:05:21;100588.88;;;31.13;100.00
23321;BME280;33376;51.306;4.752;2023-06-19T11:07:50;100632.56;;;31.01;100.00
23321;BME280;33376;51.306;4.752;2023-06-19T11:10:19;100578.38;;;31.34;100.00
23321;BME280;33376;51.306;4.752;2023-06-19T11:12:44;100691.00;;;30.32;100.00
23321;BME280;33376;51.306;4.752;2023-06-19T11:15:10;100607.59;;;31.16;100.00
23321;BME280;33376;51.306;4.752;2023-06-19T11:17:35;100582.56;;;31.98;100.00
23321;BME280;33376;51.306;4.752;2023-06-19T11:20:01;100512.72;;;32.30;100.00
23321;BME280;33376;51.306;4.752;2023-06-19T11:22:36;100590.34;;;30.84;100.00
23321;BME280;33376;51.306;4.752;2023-06-19T11:25:03;100694.75;;;30.44;100.00
23321;BME280;33376;51.306;4.752;2023-06-19T11:27:29;100608.13;;;31.24;100.00
23321;BME280;33376;51.306;4.752;2023-06-19T11:29:56;100625.28;;;31.45;100.00
23321;BME280;33376;51.306;4.752;2023-06-19T11:32:23;100515.22;;;30.98;100.00
23321;BME280;33376;51.306;4.752;2023-06-19T11:34:50;100431.66;;;32.16;100.00
23321;BME280;33376;51.306;4.752;2023-06-19T11:37:17;100473.22;;;32.01;100.00
23321;BME280;33376;51.306;4.752;2023-06-19T11:39:45;100422.00;;;32.66;100.00
23321;BME280;33376;51.306;4.752;2023-06-19T11:42:11;100415.66;;;31.83;100.00
23321;BME280;33376;51.306;4.752;2023-06-19T11:44:52;100476.47;;;31.19;100.00
23321;BME280;33376;51.306;4.752;2023-06-19T11:47:18;100483.00;;;31.97;100.00
23321;BME280;33376;51.306;4.752;2023-06-19T11:49:43;100510.66;;;30.92;100.00
23321;BME280;33376;51.306;4.752;2023-06-19T11:52:12;100459.31;;;31.30;100.00
23321;BME280;33376;51.306;4.752;2023-06-19T11:54:37;100546.34;;;31.28;100.00
23321;BME280;33376;51.306;4.752;2023-06-19T11:57:02;100516.06;;;30.37;100.00
23321;BME280;33376;51.306;4.752;2023-06-19T11:59:28;100594.13;;;31.39;100.00
23321;BME280;33376;51.306;4.752;2023-06-19T12:01:53;100569.78;;;30.62;100.00
23321;BME280;33376;51.306;4.752;2023-06-19T12:04:21;100556.13;;;30.56;100.00
23321;BME280;33376;51.306;4.752;2023-06-19T12:06:46;100586.97;;;29.74;100.00
23321;BME280;33376;51.306;4.752;2023-06-19T12:09:12;100653.34;;;30.71;100.00
23321;BME280;33376;51.306;4.752;2023-06-19T12:11:37;100521.28;;;30.76;100.00
23321;BME280;33376;51.306;4.752;2023-06-19T12:14:02;100551.69;;;30.30;100.00
23321;BME280;33376;51.306;4.752;2023-06-19T12:16:28;100556.13;;;29.28;100.00
23321;BME280;33376;51.306;4.752;2023-06-19T12:18:53;100671.69;;;29.29;100.00
23321;BME280;33376;51.306;4.752;2023-06-19T12:21:18;100589.38;;;30.28;100.00
23321;BME280;33376;51.306;4.752;2023-06-19T12:23:44;100608.66;;;29.30;100.00
23321;BME280;33376;51.306;4.752;2023-06-19T12:26:09;100560.69;;;30.37;100.00
23321;BME280;33376;51.306;4.752;2023-06-19T12:28:34;100527.91;;;30.93;100.00
23321;BME280;33376;51.306;4.752;2023-06-19T12:30:59;100517.66;;;30.82;100.00
23321;BME280;33376;51.306;4.752;2023-06-19T12:33:25;100457.16;;;30.90;100.00
23321;BME280;33376;51.306;4.752;2023-06-19T12:35:50;100440.25;;;30.68;100.00
23321;BME280;33376;51.306;4.752;2023-06-19T12:38:16;100504.09;;;30.62;100.00